createdAt,value
2019-05-26T00:04:31.687Z,12
2019-05-26T00:09:34.135Z,12
2019-05-26T00:14:36.653Z,15
2019-05-26T00:19:39.057Z,15
2019-05-26T00:24:41.530Z,14
2019-05-26T00:29:43.978Z,13
2019-05-26T00:34:46.444Z,15
2019-05-26T00:39:48.877Z,13
2019-05-26T00:44:51.335Z,14
2019-05-26T00:49:53.780Z,14
2019-05-26T00:54:56.324Z,15
2019-05-26T00:59:58.730Z,17
2019-05-26T01:05:01.174Z,14
2019-05-26T01:10:03.648Z,14
2019-05-26T01:15:06.135Z,15
2019-05-26T01:20:08.556Z,15
2019-05-26T01:25:11.046Z,15
2019-05-26T01:30:13.479Z,16
2019-05-26T01:35:15.935Z,15
2019-05-26T01:40:18.379Z,16
2019-05-26T01:45:20.835Z,21
2019-05-26T01:50:23.307Z,16
2019-05-26T01:55:25.753Z,21
2019-05-26T02:00:28.188Z,16
2019-05-26T02:05:30.664Z,14
2019-05-26T02:10:33.113Z,14
2019-05-26T02:15:35.597Z,16
2019-05-26T02:20:38.009Z,17
2019-05-26T02:25:40.497Z,15
2019-05-26T02:30:42.941Z,16
2019-05-26T02:35:45.389Z,16
2019-05-26T02:40:47.878Z,13
2019-05-26T02:45:50.330Z,15
2019-05-26T02:50:52.780Z,14
2019-05-26T02:55:55.255Z,15
2019-05-26T03:00:57.695Z,15
2019-05-26T03:06:00.158Z,16
2019-05-26T03:11:02.604Z,15
2019-05-26T03:16:05.074Z,15
2019-05-26T03:21:07.558Z,17
2019-05-26T03:26:09.996Z,16
2019-05-26T03:31:12.466Z,17
2019-05-26T03:36:14.887Z,21
2019-05-26T03:41:17.396Z,21
2019-05-26T03:46:19.893Z,16
2019-05-26T03:51:22.319Z,22
2019-05-26T03:56:24.718Z,18
2019-05-26T04:01:27.182Z,17
2019-05-26T04:06:29.670Z,17
2019-05-26T04:11:32.203Z,20
2019-05-26T04:16:34.650Z,16
2019-05-26T04:21:36.995Z,16
2019-05-26T04:26:39.455Z,17
2019-05-26T04:31:41.957Z,18
2019-05-26T04:36:44.388Z,19
2019-05-26T04:41:46.884Z,19
2019-05-26T04:46:49.314Z,19
2019-05-26T04:51:51.770Z,21
2019-05-26T04:56:54.209Z,20
2019-05-26T05:01:56.679Z,23
2019-05-26T05:06:59.136Z,21
2019-05-26T05:12:01.598Z,21
2019-05-26T05:17:04.065Z,25
2019-05-26T05:22:06.504Z,20
2019-05-26T05:27:08.971Z,23
2019-05-26T05:32:11.418Z,19
2019-05-26T05:37:13.888Z,21
2019-05-26T05:42:16.317Z,23
2019-05-26T05:47:18.786Z,21
2019-05-26T05:52:21.268Z,20
2019-05-26T05:57:23.701Z,20
2019-05-26T06:02:26.195Z,20
2019-05-26T06:07:28.649Z,19
2019-05-26T06:12:31.102Z,21
2019-05-26T06:17:33.575Z,19
2019-05-26T06:22:36.051Z,17
2019-05-26T06:27:38.556Z,14
2019-05-26T06:32:41.042Z,12
2019-05-26T06:37:43.386Z,13
2019-05-26T06:42:45.860Z,12
2019-05-26T06:47:48.306Z,13
2019-05-26T06:52:50.741Z,10
2019-05-26T06:57:53.198Z,11
2019-05-26T07:02:55.663Z,10
2019-05-26T07:07:58.144Z,9
2019-05-26T07:13:00.586Z,11
2019-05-26T07:18:03.195Z,4
2019-05-26T07:23:07.026Z,4
2019-05-26T07:28:08.023Z,3
2019-05-26T07:33:10.443Z,4
2019-05-26T07:38:12.925Z,4
2019-05-26T07:43:15.352Z,4
2019-05-26T07:48:17.841Z,4
2019-05-26T07:53:20.338Z,3
2019-05-26T07:58:22.734Z,4
2019-05-26T08:03:25.259Z,4
2019-05-26T08:08:27.711Z,4
2019-05-26T08:13:30.130Z,3
2019-05-26T08:18:32.586Z,3
2019-05-26T08:23:35.032Z,2
2019-05-26T08:28:37.530Z,2
2019-05-26T08:33:39.983Z,3
2019-05-26T08:38:42.438Z,3
2019-05-26T08:43:44.897Z,3
2019-05-26T08:48:47.450Z,3
2019-05-26T08:53:49.796Z,3
2019-05-26T08:58:52.392Z,2
2019-05-26T09:03:54.722Z,3
2019-05-26T09:08:57.200Z,3
2019-05-26T09:13:59.643Z,3
2019-05-26T09:19:02.120Z,3
2019-05-26T09:24:04.560Z,3
2019-05-26T09:29:07.031Z,2
2019-05-26T09:34:09.507Z,3
2019-05-26T09:39:11.967Z,3
2019-05-26T09:44:14.501Z,3
2019-05-26T09:49:16.944Z,4
2019-05-26T09:54:19.482Z,3
2019-05-26T09:59:21.812Z,4
2019-05-26T10:04:24.300Z,3
2019-05-26T10:09:26.753Z,5
2019-05-26T10:14:29.186Z,3
2019-05-26T10:19:31.687Z,3
2019-05-26T10:24:34.144Z,4
2019-05-26T10:29:36.582Z,2
2019-05-26T10:34:39.058Z,3
2019-05-26T10:39:44.748Z,3
2019-05-26T10:44:43.979Z,2
2019-05-26T10:49:46.458Z,2
2019-05-26T10:54:48.902Z,2
2019-05-26T10:59:51.370Z,2
2019-05-26T11:04:53.864Z,4
2019-05-26T11:09:56.329Z,3
2019-05-26T11:14:58.782Z,2
2019-05-26T11:25:03.665Z,4
2019-05-26T11:30:06.174Z,2
2019-05-26T11:35:08.579Z,2
2019-05-26T11:40:11.124Z,2
2019-05-26T11:45:13.506Z,7
2019-05-26T11:50:15.951Z,2
2019-05-26T11:55:18.431Z,3
2019-05-26T12:00:20.871Z,2
2019-05-26T12:05:23.345Z,2
2019-05-26T12:10:25.802Z,2
2019-05-26T12:15:28.256Z,2
2019-05-26T12:20:30.725Z,3
2019-05-26T12:25:33.184Z,2
2019-05-26T12:30:35.657Z,3
2019-05-26T12:35:38.167Z,2
2019-05-26T12:40:40.556Z,2
2019-05-26T12:45:43.014Z,3
2019-05-26T12:50:45.519Z,1
2019-05-26T12:55:47.958Z,3
2019-05-26T13:00:54.451Z,1
2019-05-26T13:05:52.883Z,2
2019-05-26T13:10:55.337Z,2
2019-05-26T13:15:57.798Z,2
2019-05-26T13:21:00.214Z,2
2019-05-26T13:26:02.721Z,2
2019-05-26T13:31:05.153Z,2
2019-05-26T13:36:07.637Z,1
2019-05-26T13:41:10.062Z,2
2019-05-26T13:46:12.540Z,2
2019-05-26T13:51:15.028Z,2
2019-05-26T13:56:17.502Z,2
2019-05-26T14:01:19.903Z,2
2019-05-26T14:06:22.531Z,2
2019-05-26T14:11:24.858Z,1
2019-05-26T14:16:27.293Z,2
2019-05-26T14:21:29.831Z,3
2019-05-26T14:26:32.188Z,1
2019-05-26T14:31:34.690Z,1
2019-05-26T14:36:37.208Z,3
2019-05-26T14:41:39.569Z,4
2019-05-26T14:46:42.066Z,2
2019-05-26T14:51:44.520Z,3
2019-05-26T14:56:46.974Z,3
2019-05-26T15:01:49.426Z,2
2019-05-26T15:06:51.881Z,2
2019-05-26T15:11:54.348Z,2
2019-05-26T15:16:56.811Z,6
2019-05-26T15:21:59.352Z,2
2019-05-26T15:27:01.744Z,2
2019-05-26T15:32:04.154Z,1
2019-05-26T15:37:06.681Z,2
2019-05-26T15:42:09.091Z,2
2019-05-26T15:47:11.553Z,2
2019-05-26T15:52:13.997Z,1
2019-05-26T15:57:16.456Z,2
2019-05-26T16:02:18.978Z,3
2019-05-26T16:07:21.400Z,2
2019-05-26T16:12:23.853Z,1
2019-05-26T16:17:26.298Z,1
2019-05-26T16:22:28.751Z,2
2019-05-26T16:27:31.220Z,2
2019-05-26T16:32:33.655Z,2
2019-05-26T16:42:38.595Z,2
2019-05-26T16:47:41.056Z,3
2019-05-26T16:52:43.536Z,2
2019-05-26T16:57:45.981Z,3
2019-05-26T17:02:48.508Z,2
2019-05-26T17:07:50.889Z,2
2019-05-26T17:12:53.455Z,3
2019-05-26T17:17:55.804Z,2
2019-05-26T17:22:58.285Z,2
2019-05-26T17:28:00.712Z,2
2019-05-26T17:33:03.201Z,3
2019-05-26T17:38:05.633Z,2
2019-05-26T17:43:08.084Z,6
2019-05-26T17:48:10.536Z,3
2019-05-26T17:53:13.028Z,3
2019-05-26T17:58:15.447Z,2
2019-05-26T18:03:17.945Z,3
2019-05-26T18:13:22.829Z,1
2019-05-26T18:18:25.318Z,2
2019-05-26T18:23:27.764Z,5
2019-05-26T18:28:30.219Z,3
2019-05-26T18:33:32.663Z,4
2019-05-26T18:38:35.143Z,3
2019-05-26T18:43:37.592Z,2
2019-05-26T18:48:40.076Z,2
2019-05-26T18:53:42.543Z,3
2019-05-26T18:58:45.047Z,5
2019-05-26T19:03:47.440Z,2
2019-05-26T19:08:49.913Z,4
2019-05-26T19:13:52.364Z,3
2019-05-26T19:18:54.778Z,4
2019-05-26T19:23:57.303Z,3
2019-05-26T19:28:59.709Z,3
2019-05-26T19:34:02.236Z,2
2019-05-26T19:39:04.643Z,3
2019-05-26T19:44:07.096Z,3
2019-05-26T19:49:09.558Z,3
2019-05-26T19:54:13.835Z,3
2019-05-26T19:59:14.473Z,3
2019-05-26T20:04:16.918Z,3
2019-05-26T20:09:19.378Z,4
2019-05-26T20:14:21.860Z,4
2019-05-26T20:19:24.295Z,4
2019-05-26T20:24:26.833Z,4
2019-05-26T20:29:29.203Z,4
2019-05-26T20:34:31.706Z,4
2019-05-26T20:39:34.145Z,6
2019-05-26T20:44:36.566Z,4
2019-05-26T20:49:45.157Z,4
2019-05-26T20:54:41.489Z,5
2019-05-26T20:59:44.049Z,4
2019-05-26T21:04:46.408Z,8
2019-05-26T21:09:48.894Z,4
2019-05-26T21:14:51.545Z,5
2019-05-26T21:19:53.835Z,5
2019-05-26T21:24:56.269Z,4
2019-05-26T21:29:58.701Z,5
2019-05-26T21:35:01.219Z,4
2019-05-26T21:40:03.622Z,5
2019-05-26T21:45:06.148Z,4
2019-05-26T21:50:08.527Z,4
2019-05-26T21:55:11.018Z,5
2019-05-26T22:00:13.488Z,7
2019-05-26T22:05:15.917Z,5
2019-05-26T22:10:18.383Z,7
2019-05-26T22:15:20.850Z,5
2019-05-26T22:20:23.323Z,5
2019-05-26T22:25:25.754Z,4
2019-05-26T22:30:28.198Z,5
2019-05-26T22:35:30.643Z,6
2019-05-26T22:40:33.102Z,5
2019-05-26T22:45:35.628Z,5
2019-05-26T22:50:38.022Z,4
2019-05-26T22:55:40.477Z,5
2019-05-26T23:00:42.942Z,6
2019-05-26T23:05:45.402Z,5
2019-05-26T23:10:47.888Z,9
2019-05-26T23:15:50.330Z,5
2019-05-26T23:20:52.760Z,6
2019-05-26T23:25:55.231Z,7
2019-05-26T23:30:57.703Z,7
2019-05-26T23:36:00.137Z,6
2019-05-26T23:41:02.638Z,6
2019-05-26T23:46:05.092Z,7
2019-05-26T23:51:07.503Z,8
2019-05-26T23:56:09.988Z,7
